createdAt,value
2018-12-22T00:00:43.890Z,96984.63
2018-12-22T00:03:11.377Z,96985.01
2018-12-22T00:05:38.914Z,96984.91
2018-12-22T00:08:06.386Z,96985.13
2018-12-22T00:10:34.670Z,96980.86
2018-12-22T00:13:02.299Z,96975.27
2018-12-22T00:15:29.811Z,96980.30
2018-12-22T00:17:57.347Z,96979.60
2018-12-22T00:20:24.863Z,96976.34
2018-12-22T00:22:52.387Z,96981.45
2018-12-22T00:25:19.923Z,96986.17
2018-12-22T00:27:47.439Z,96987.73
2018-12-22T00:30:14.999Z,96988.78
2018-12-22T00:32:42.543Z,96981.55
2018-12-22T00:35:10.096Z,96981.17
2018-12-22T00:37:37.637Z,96975.55
2018-12-22T00:40:05.212Z,96966.87
2018-12-22T00:42:32.743Z,96971.30
2018-12-22T00:45:00.267Z,96982.22
2018-12-22T00:47:28.307Z,96978.45
2018-12-22T00:49:55.810Z,96971.59
2018-12-22T00:52:23.318Z,96975.36
2018-12-22T00:54:50.819Z,96974.20
2018-12-22T00:57:18.379Z,96975.36
2018-12-22T00:59:45.878Z,96971.12
2018-12-22T01:02:13.442Z,96977.09
2018-12-22T01:04:40.926Z,96975.93
2018-12-22T01:07:08.431Z,96978.16
2018-12-22T01:09:35.970Z,96989.19
2018-12-22T01:12:03.483Z,96988.59
2018-12-22T01:14:30.994Z,96991.20
2018-12-22T01:16:58.486Z,96995.16
2018-12-22T01:19:29.611Z,96998.65
2018-12-22T01:21:57.194Z,96994.09
2018-12-22T01:24:25.941Z,96989.63
2018-12-22T01:26:53.460Z,96993.59
2018-12-22T01:29:21.006Z,96996.89
2018-12-22T01:31:48.500Z,97001.61
2018-12-22T01:34:15.996Z,97006.63
2018-12-22T01:36:43.490Z,97001.80
2018-12-22T01:39:10.983Z,97005.19
2018-12-22T01:41:38.559Z,96998.53
2018-12-22T01:44:06.071Z,97001.70
2018-12-22T01:46:33.586Z,97010.59
2018-12-22T01:49:01.107Z,97010.59
2018-12-22T01:51:28.626Z,97004.81
2018-12-22T01:53:56.158Z,97008.17
2018-12-22T01:56:23.699Z,97005.37
2018-12-22T01:58:52.007Z,97001.52
2018-12-22T02:01:19.507Z,96997.37
2018-12-22T02:03:47.059Z,96997.65
2018-12-22T02:06:14.540Z,96997.27
2018-12-22T02:08:42.061Z,97003.66
2018-12-22T02:11:09.555Z,96993.97
2018-12-22T02:13:37.046Z,96994.86
2018-12-22T02:16:04.582Z,96992.53
2018-12-22T02:18:32.138Z,96997.55
2018-12-22T02:20:59.657Z,96998.50
2018-12-22T02:23:27.201Z,96998.81
2018-12-22T02:25:54.823Z,96954.68
2018-12-22T02:28:22.397Z,96989.23
2018-12-22T02:30:49.936Z,96980.34
2018-12-22T02:33:17.439Z,96977.27
2018-12-22T02:35:44.941Z,96976.48
2018-12-22T02:38:12.452Z,96963.03
2018-12-22T02:40:39.966Z,96960.33
2018-12-22T02:43:07.482Z,96952.41
2018-12-22T02:45:35.363Z,96950.22
2018-12-22T02:48:02.877Z,96947.30
2018-12-22T02:50:30.390Z,96956.09
2018-12-22T02:52:57.927Z,96950.59
2018-12-22T02:55:27.057Z,96949.15
2018-12-22T02:57:54.579Z,96951.56
2018-12-22T03:00:22.086Z,96938.13
2018-12-22T03:02:49.550Z,96938.22
2018-12-22T03:05:17.037Z,96922.39
2018-12-22T03:07:44.545Z,96919.78
2018-12-22T03:10:12.036Z,96913.31
2018-12-22T03:12:39.576Z,96911.55
2018-12-22T03:15:07.094Z,96909.92
2018-12-22T03:17:34.578Z,96908.67
2018-12-22T03:20:02.206Z,96902.77
2018-12-22T03:22:29.700Z,96906.06
2018-12-22T03:24:57.247Z,96900.66
2018-12-22T03:27:32.469Z,96896.48
2018-12-22T03:29:59.972Z,96898.80
2018-12-22T03:32:27.482Z,96894.34
2018-12-22T03:34:54.980Z,96890.00
2018-12-22T03:37:22.472Z,96886.15
2018-12-22T03:39:49.995Z,96872.70
2018-12-22T03:42:17.487Z,95985.78
2018-12-22T03:44:45.208Z,96867.77
2018-12-22T03:47:12.734Z,96868.66
2018-12-22T03:49:40.232Z,96870.00
2018-12-22T03:52:07.783Z,96878.00
2018-12-22T03:54:35.301Z,96872.89
2018-12-22T03:57:03.777Z,96877.53
2018-12-22T03:59:31.304Z,96878.80
2018-12-22T04:01:58.795Z,96891.64
2018-12-22T04:04:26.299Z,96888.38
2018-12-22T04:06:53.776Z,96894.66
2018-12-22T04:09:21.246Z,96899.09
2018-12-22T04:11:48.784Z,96898.52
2018-12-22T04:14:16.276Z,96893.41
2018-12-22T04:16:43.785Z,96902.20
2018-12-22T04:19:11.432Z,96881.22
2018-12-22T04:21:39.047Z,96888.84
2018-12-22T04:24:06.626Z,96893.50
2018-12-22T04:26:34.172Z,96885.21
2018-12-22T04:29:01.751Z,96890.61
2018-12-22T04:31:29.232Z,96899.59
2018-12-22T04:33:56.718Z,96894.48
2018-12-22T04:36:24.274Z,96897.97
2018-12-22T04:38:51.816Z,96897.27
2018-12-22T04:41:19.336Z,96893.13
2018-12-22T04:43:46.854Z,96888.57
2018-12-22T04:46:14.376Z,96896.61
2018-12-22T04:48:41.896Z,96893.22
2018-12-22T04:51:09.406Z,96883.08
2018-12-22T04:53:36.895Z,96872.56
2018-12-22T04:56:04.414Z,96867.03
2018-12-22T04:58:31.929Z,96870.33
2018-12-22T05:00:59.467Z,96874.89
2018-12-22T05:03:26.957Z,96878.16
2018-12-22T05:05:54.508Z,96872.84
2018-12-22T05:08:22.074Z,96877.40
2018-12-22T05:10:49.601Z,96870.70
2018-12-22T05:13:17.105Z,96874.89
2018-12-22T05:15:44.588Z,96881.07
2018-12-22T05:18:12.090Z,96880.76
2018-12-22T05:20:39.636Z,96883.77
2018-12-22T05:23:07.237Z,96886.84
2018-12-22T05:25:34.723Z,96893.41
2018-12-22T05:28:02.261Z,96889.73
2018-12-22T05:30:29.796Z,96885.96
2018-12-22T05:32:57.326Z,96880.05
2018-12-22T05:35:24.833Z,96876.37
2018-12-22T05:37:52.320Z,96882.66
2018-12-22T05:40:19.836Z,96876.00
2018-12-22T05:42:47.336Z,96871.77
2018-12-22T05:45:14.886Z,96876.37
2018-12-22T05:47:42.396Z,96880.66
2018-12-22T05:50:10.715Z,96879.95
2018-12-22T05:52:38.225Z,96880.24
2018-12-22T05:55:05.778Z,96883.16
2018-12-22T05:57:33.351Z,96877.73
2018-12-22T06:00:01.563Z,96883.26
2018-12-22T06:02:29.079Z,96884.52
2018-12-22T06:04:56.655Z,96883.26
2018-12-22T06:07:24.137Z,96885.86
2018-12-22T06:09:51.614Z,96890.89
2018-12-22T06:12:19.098Z,96906.25
2018-12-22T06:14:46.961Z,96905.87
2018-12-22T06:17:14.487Z,96915.14
2018-12-22T06:19:42.029Z,96031.52
2018-12-22T06:22:09.523Z,96914.76
2018-12-22T06:24:37.019Z,96166.93
2018-12-22T06:27:04.533Z,96917.09
2018-12-22T06:29:32.072Z,96922.30
2018-12-22T06:31:59.613Z,96924.12
2018-12-22T06:34:27.161Z,96928.48
2018-12-22T06:36:54.679Z,96934.36
2018-12-22T06:39:22.173Z,96920.95
2018-12-22T06:41:49.728Z,96937.37
2018-12-22T06:44:17.234Z,96934.07
2018-12-22T06:46:44.726Z,96945.95
2018-12-22T06:49:12.263Z,96939.80
2018-12-22T06:51:39.842Z,96941.23
2018-12-22T06:54:07.508Z,96949.24
2018-12-22T06:56:35.007Z,96951.38
2018-12-22T06:59:02.491Z,96956.78
2018-12-22T07:01:30.000Z,96965.17
2018-12-22T07:03:57.493Z,96970.28
2018-12-22T07:06:25.021Z,96971.35
2018-12-22T07:08:52.537Z,96980.34
2018-12-22T07:11:20.047Z,96977.73
2018-12-22T07:13:47.562Z,96980.63
2018-12-22T07:16:15.075Z,96978.02
2018-12-22T07:18:42.592Z,96983.55
2018-12-22T07:21:10.181Z,96980.25
2018-12-22T07:23:37.731Z,96986.16
2018-12-22T07:26:05.242Z,96986.62
2018-12-22T07:28:32.718Z,96983.32
2018-12-22T07:31:01.342Z,96994.34
2018-12-22T07:33:28.852Z,96999.66
2018-12-22T07:35:56.371Z,97010.19
2018-12-22T07:38:23.847Z,97010.88
2018-12-22T07:40:51.439Z,97010.18
2018-12-22T07:43:18.947Z,97016.75
2018-12-22T07:45:46.441Z,97019.36
2018-12-22T07:48:13.945Z,97045.56
2018-12-22T07:50:41.438Z,97044.50
2018-12-22T07:53:08.973Z,97044.59
2018-12-22T07:55:36.458Z,97046.07
2018-12-22T07:58:04.027Z,97053.52
2018-12-22T08:00:35.080Z,97050.72
2018-12-22T08:03:01.078Z,97050.13
2018-12-22T08:05:28.604Z,97074.50
2018-12-22T08:07:56.099Z,97083.98
2018-12-22T08:10:23.630Z,97088.91
2018-12-22T08:12:51.156Z,97091.14
2018-12-22T08:15:18.659Z,97079.42
2018-12-22T08:17:46.139Z,97087.74
2018-12-22T08:20:13.795Z,97095.27
2018-12-22T08:22:41.286Z,97085.22
2018-12-22T08:25:08.759Z,97085.62
2018-12-22T08:27:36.264Z,97087.63
2018-12-22T08:30:04.532Z,97091.91
2018-12-22T08:32:32.023Z,97107.45
2018-12-22T08:34:59.512Z,97103.22
2018-12-22T08:37:26.982Z,97106.89
2018-12-22T08:39:54.471Z,97113.44
2018-12-22T08:42:21.969Z,97110.46
2018-12-22T08:44:49.449Z,97110.15
2018-12-22T08:47:16.924Z,97106.00
2018-12-22T08:49:44.416Z,97108.42
2018-12-22T08:52:11.883Z,97110.55
2018-12-22T08:54:39.360Z,97125.44
2018-12-22T08:57:06.845Z,97129.58
2018-12-22T08:59:34.382Z,97149.31
2018-12-22T09:02:01.878Z,97148.16
2018-12-22T09:04:29.365Z,97160.61
2018-12-22T09:06:56.830Z,97173.45
2018-12-22T09:09:24.308Z,97180.98
2018-12-22T09:11:52.017Z,97189.31
2018-12-22T09:14:19.621Z,97212.47
2018-12-22T09:16:47.091Z,97195.77
2018-12-22T09:19:14.567Z,97209.38
2018-12-22T09:21:42.044Z,97198.05
2018-12-22T09:24:09.532Z,97215.16
2018-12-22T09:26:37.978Z,97225.67
2018-12-22T09:29:05.460Z,97223.67
2018-12-22T09:31:33.194Z,97240.10
2018-12-22T09:34:00.873Z,97219.91
2018-12-22T09:36:28.352Z,97232.63
2018-12-22T09:38:55.840Z,97226.63
2018-12-22T09:41:23.316Z,97244.11
2018-12-22T09:43:50.802Z,97250.32
2018-12-22T09:46:18.274Z,97256.70
2018-12-22T09:48:46.608Z,97243.47
2018-12-22T09:51:14.086Z,97249.47
2018-12-22T09:53:41.563Z,97252.97
2018-12-22T09:56:09.061Z,97248.63
2018-12-22T09:58:36.541Z,97256.09
2018-12-22T10:01:09.264Z,97265.09
2018-12-22T10:03:33.544Z,97260.55
2018-12-22T10:06:01.013Z,97254.29
2018-12-22T10:08:28.508Z,97254.36
2018-12-22T10:10:55.996Z,97259.02
2018-12-22T10:13:23.602Z,97260.06
2018-12-22T10:15:51.078Z,97263.05
2018-12-22T10:18:18.560Z,97259.45
2018-12-22T10:20:46.072Z,97263.43
2018-12-22T10:23:13.557Z,97259.19
2018-12-22T10:25:41.063Z,97274.73
2018-12-22T10:28:08.547Z,97271.27
2018-12-22T10:30:36.034Z,97268.97
2018-12-22T10:33:03.542Z,97273.11
2018-12-22T10:35:31.023Z,97280.68
2018-12-22T10:37:58.486Z,97271.67
2018-12-22T10:40:25.972Z,97275.55
2018-12-22T10:42:53.444Z,97300.14
2018-12-22T10:45:20.964Z,97261.48
2018-12-22T10:47:48.602Z,97267.36
2018-12-22T10:50:16.181Z,97270.48
2018-12-22T10:52:43.678Z,97282.84
2018-12-22T10:55:11.163Z,97287.09
2018-12-22T10:57:38.637Z,97303.03
2018-12-22T11:00:10.163Z,97300.78
2018-12-22T11:02:37.639Z,97297.14
2018-12-22T11:05:07.708Z,97303.32
2018-12-22T11:07:35.191Z,97330.50
2018-12-22T11:10:02.710Z,97308.89
2018-12-22T11:12:30.214Z,97301.77
2018-12-22T11:14:57.718Z,97311.61
2018-12-22T11:17:25.264Z,97328.72
2018-12-22T11:19:52.774Z,97331.44
2018-12-22T11:22:20.287Z,97078.44
2018-12-22T11:24:47.775Z,97313.69
2018-12-22T11:27:15.266Z,97308.77
2018-12-22T11:29:42.783Z,97324.69
2018-12-22T11:32:10.270Z,97326.73
2018-12-22T11:34:37.753Z,97317.94
2018-12-22T11:37:05.299Z,97333.11
2018-12-22T11:39:32.804Z,97321.81
2018-12-22T11:42:01.097Z,97323.64
2018-12-22T11:44:31.589Z,97324.80
2018-12-22T11:47:02.644Z,97334.99
2018-12-22T11:49:30.763Z,97328.82
2018-12-22T11:51:58.243Z,97329.59
2018-12-22T11:54:25.735Z,97328.36
2018-12-22T11:56:53.250Z,97327.77
2018-12-22T11:59:20.767Z,97320.92
2018-12-22T12:01:48.276Z,97326.45
2018-12-22T12:04:15.779Z,97331.02
2018-12-22T12:06:43.283Z,97331.91
2018-12-22T12:09:10.814Z,97327.30
2018-12-22T12:11:38.328Z,97323.42
2018-12-22T12:14:05.823Z,97317.55
2018-12-22T12:16:33.493Z,97339.96
2018-12-22T12:19:05.060Z,97325.26
2018-12-22T12:21:32.685Z,97330.59
2018-12-22T12:24:00.515Z,97335.86
2018-12-22T12:26:28.163Z,97337.12
2018-12-22T12:28:55.703Z,97355.81
2018-12-22T12:31:23.180Z,97355.84
2018-12-22T12:33:50.692Z,97359.62
2018-12-22T12:36:18.197Z,97350.82
2018-12-22T12:38:45.727Z,97356.12
2018-12-22T12:41:13.506Z,97357.17
2018-12-22T12:43:41.119Z,97356.19
2018-12-22T12:46:08.737Z,97368.02
2018-12-22T12:48:37.503Z,97352.27
2018-12-22T12:51:05.010Z,97354.09
2018-12-22T12:53:33.057Z,97363.63
2018-12-22T12:56:00.542Z,97368.18
2018-12-22T12:58:28.060Z,97372.94
2018-12-22T13:00:55.761Z,97370.02
2018-12-22T13:03:23.299Z,97390.21
2018-12-22T13:05:50.967Z,97368.91
2018-12-22T13:08:18.505Z,97371.69
2018-12-22T13:10:46.063Z,97385.41
2018-12-22T13:16:18.190Z,97419.08
2018-12-22T13:18:45.739Z,97439.07
2018-12-22T13:21:13.374Z,97468.67
2018-12-22T13:23:40.865Z,97471.50
2018-12-22T13:26:08.446Z,97467.81
2018-12-22T13:28:36.106Z,97473.28
2018-12-22T13:31:04.462Z,97490.92
2018-12-22T13:33:32.563Z,97497.48
2018-12-22T13:36:00.278Z,97517.57
2018-12-22T13:38:27.763Z,97512.50
2018-12-22T13:40:55.259Z,97535.42
2018-12-22T13:43:22.737Z,97545.16
2018-12-22T13:45:50.222Z,97550.97
2018-12-22T13:48:18.089Z,97541.72
2018-12-22T13:50:45.961Z,97559.91
2018-12-22T13:53:13.669Z,97567.61
2018-12-22T13:55:41.154Z,97563.13
2018-12-22T13:58:08.640Z,97546.48
2018-12-22T14:00:37.511Z,97541.72
2018-12-22T14:03:06.146Z,97547.29
2018-12-22T14:05:34.621Z,97545.27
2018-12-22T14:08:02.115Z,97534.16
2018-12-22T14:10:29.593Z,97538.44
2018-12-22T14:12:57.072Z,97544.89
2018-12-22T14:15:25.319Z,97531.77
2018-12-22T14:20:55.341Z,97536.02
2018-12-22T14:23:26.117Z,97528.51
2018-12-22T14:25:53.594Z,97534.31
2018-12-22T14:28:21.075Z,97534.04
2018-12-22T14:30:48.575Z,97525.40
2018-12-22T14:33:16.066Z,97534.28
2018-12-22T14:35:43.591Z,97529.16
2018-12-22T14:38:11.090Z,97530.89
2018-12-22T14:40:38.612Z,97523.63
2018-12-22T14:43:06.197Z,97546.16
2018-12-22T14:45:33.739Z,97542.37
2018-12-22T14:48:01.263Z,97548.27
2018-12-22T14:50:28.779Z,97546.41
2018-12-22T14:52:56.299Z,97541.27
2018-12-22T14:55:25.269Z,97539.74
2018-12-22T14:57:55.811Z,97545.52
2018-12-22T15:00:23.391Z,97554.68
2018-12-22T15:02:50.871Z,97547.41
2018-12-22T15:05:18.345Z,97548.05
2018-12-22T15:07:45.827Z,97539.41
2018-12-22T15:10:13.322Z,97544.39
2018-12-22T15:12:40.806Z,97556.54
2018-12-22T15:15:10.464Z,97568.05
2018-12-22T15:17:40.311Z,97573.30
2018-12-22T15:20:16.163Z,97577.82
2018-12-22T15:22:43.640Z,97581.21
2018-12-22T15:25:11.114Z,97585.82
2018-12-22T15:27:38.610Z,97583.84
2018-12-22T15:30:10.395Z,97582.06
2018-12-22T15:32:44.094Z,97595.08
2018-12-22T15:35:08.650Z,97599.32
2018-12-22T15:37:36.117Z,97598.83
2018-12-22T15:40:06.364Z,97602.95
2018-12-22T15:42:33.930Z,97616.45
2018-12-22T15:45:01.457Z,97602.19
2018-12-22T15:47:28.931Z,97599.69
2018-12-22T15:49:56.433Z,97595.41
2018-12-22T15:52:23.910Z,97593.27
2018-12-22T15:54:51.384Z,97594.52
2018-12-22T15:57:18.873Z,97584.50
2018-12-22T15:59:46.359Z,97590.39
2018-12-22T16:02:13.854Z,97591.13
2018-12-22T16:04:41.329Z,97607.53
2018-12-22T16:07:08.799Z,97607.16
2018-12-22T16:09:36.277Z,97613.67
2018-12-22T16:12:03.764Z,97617.80
2018-12-22T16:14:31.268Z,97628.45
2018-12-22T16:16:58.734Z,97631.85
2018-12-22T16:19:26.199Z,97631.61
2018-12-22T16:21:53.947Z,97634.11
2018-12-22T16:24:21.457Z,97636.98
2018-12-22T16:26:48.945Z,97237.34
2018-12-22T16:29:16.427Z,97648.26
2018-12-22T16:31:43.902Z,97640.47
2018-12-22T16:34:11.382Z,97643.86
2018-12-22T16:36:38.865Z,97648.09
2018-12-22T16:39:06.823Z,97640.70
2018-12-22T16:41:34.339Z,97645.23
2018-12-22T16:44:01.822Z,97642.23
2018-12-22T16:46:29.295Z,97637.95
2018-12-22T16:48:56.765Z,97638.84
2018-12-22T16:51:24.233Z,97643.13
2018-12-22T16:53:51.735Z,97640.74
2018-12-22T16:56:19.241Z,97636.86
2018-12-22T16:58:46.902Z,97635.97
2018-12-22T17:01:20.030Z,97637.63
2018-12-22T17:03:47.509Z,97641.88
2018-12-22T17:06:14.999Z,97651.65
2018-12-22T17:08:42.494Z,97658.92
2018-12-22T17:11:09.984Z,97660.41
2018-12-22T17:13:37.462Z,97652.25
2018-12-22T17:16:05.034Z,97649.63
2018-12-22T17:18:32.553Z,97642.11
2018-12-22T17:21:04.002Z,97642.88
2018-12-22T17:23:44.213Z,97653.14
2018-12-22T17:26:11.691Z,97657.79
2018-12-22T17:28:39.187Z,97655.52
2018-12-22T17:31:06.662Z,97661.79
2018-12-22T17:33:36.231Z,97667.05
2018-12-22T17:36:03.798Z,97680.48
2018-12-22T17:38:31.274Z,97684.34
2018-12-22T17:40:58.768Z,97676.84
2018-12-22T17:43:26.339Z,97674.70
2018-12-22T17:45:53.835Z,97671.45
2018-12-22T17:48:21.307Z,97680.73
2018-12-22T17:50:48.787Z,97673.97
2018-12-22T17:53:16.283Z,97683.22
2018-12-22T17:55:43.780Z,97689.34
2018-12-22T17:58:11.310Z,97517.45
2018-12-22T18:00:38.791Z,97713.11
2018-12-22T18:03:08.587Z,97707.22
2018-12-22T18:05:36.053Z,97717.46
2018-12-22T18:08:03.521Z,97707.20
2018-12-22T18:10:31.022Z,97715.70
2018-12-22T18:12:58.504Z,97714.97
2018-12-22T18:15:26.200Z,97713.45
2018-12-22T18:17:53.758Z,97714.83
2018-12-22T18:20:21.243Z,97717.46
2018-12-22T18:22:48.739Z,97718.64
2018-12-22T18:25:19.427Z,97722.64
2018-12-22T18:27:49.094Z,97712.00
2018-12-22T18:30:16.577Z,97721.41
2018-12-22T18:32:45.052Z,97715.77
2018-12-22T18:35:12.533Z,97713.28
2018-12-22T18:37:40.009Z,97716.16
2018-12-22T18:40:12.424Z,97715.30
2018-12-22T18:42:39.984Z,97712.79
2018-12-22T18:45:10.041Z,97726.81
2018-12-22T18:47:37.529Z,97725.03
2018-12-22T18:50:23.454Z,97720.66
2018-12-22T18:52:50.967Z,97728.66
2018-12-22T18:55:18.449Z,97741.58
2018-12-22T18:57:48.311Z,97738.95
2018-12-22T19:00:20.520Z,97737.30
2018-12-22T19:02:48.043Z,97737.83
2018-12-22T19:05:16.630Z,97749.70
2018-12-22T19:07:44.107Z,97744.45
2018-12-22T19:10:15.561Z,97750.09
2018-12-22T19:12:43.037Z,97753.33
2018-12-22T19:15:10.512Z,97754.22
2018-12-22T19:17:39.010Z,97754.98
2018-12-22T19:20:11.324Z,97751.84
2018-12-22T19:22:38.842Z,97757.20
2018-12-22T19:25:08.078Z,97762.09
2018-12-22T19:27:35.690Z,97371.66
2018-12-22T19:30:03.898Z,97756.83
2018-12-22T19:32:31.395Z,97763.08
2018-12-22T19:34:58.979Z,97768.09
2018-12-22T19:37:26.462Z,97761.70
2018-12-22T19:39:53.955Z,97764.47
2018-12-22T19:42:21.439Z,97761.22
2018-12-22T19:44:49.281Z,97767.47
2018-12-22T19:47:16.796Z,97774.98
2018-12-22T19:49:44.294Z,96939.25
2018-12-22T19:52:12.713Z,97773.22
2018-12-22T19:54:40.226Z,97786.36
2018-12-22T19:57:07.728Z,97779.38
2018-12-22T19:59:35.218Z,97779.73
2018-12-22T20:02:02.725Z,97778.13
2018-12-22T20:04:30.249Z,97777.48
2018-12-22T20:06:57.788Z,97790.77
2018-12-22T20:09:25.275Z,97790.77
2018-12-22T20:11:53.050Z,97789.77
2018-12-22T20:14:20.521Z,97788.88
2018-12-22T20:16:48.019Z,97795.27
2018-12-22T20:19:15.501Z,97797.77
2018-12-22T20:21:42.976Z,97792.00
2018-12-22T20:24:10.447Z,97796.88
2018-12-22T20:26:37.944Z,97807.66
2018-12-22T20:29:05.431Z,97803.28
2018-12-22T20:31:32.897Z,97801.64
2018-12-22T20:34:00.382Z,97807.14
2018-12-22T20:36:27.860Z,97807.78
2018-12-22T20:38:55.345Z,97818.28
2018-12-22T20:41:22.819Z,97813.91
2018-12-22T20:43:50.291Z,97806.27
2018-12-22T20:46:17.767Z,97820.34
2018-12-22T20:48:45.245Z,97817.58
2018-12-22T20:51:12.743Z,97817.58
2018-12-22T20:53:40.513Z,97810.70
2018-12-22T20:56:08.075Z,97811.81
2018-12-22T20:58:35.615Z,97809.05
2018-12-22T21:01:03.153Z,97815.67
2018-12-22T21:03:37.536Z,97814.03
2018-12-22T21:06:05.062Z,97812.19
2018-12-22T21:08:32.649Z,97819.06
2018-12-22T21:11:00.294Z,97823.70
2018-12-22T21:13:27.976Z,97813.30
2018-12-22T21:15:55.673Z,97824.83
2018-12-22T21:18:23.247Z,97835.20
2018-12-22T21:20:50.849Z,96953.06
2018-12-22T21:23:18.484Z,97829.80
2018-12-22T21:25:46.203Z,97836.55
2018-12-22T21:28:13.839Z,97839.55
2018-12-22T21:30:41.407Z,97839.95
2018-12-22T21:33:09.111Z,97839.95
2018-12-22T21:35:36.740Z,97834.45
2018-12-22T21:38:05.210Z,97844.06
2018-12-22T21:40:32.691Z,97846.30
2018-12-22T21:43:00.167Z,97842.67
2018-12-22T21:45:27.657Z,97853.44
2018-12-22T21:47:55.128Z,97850.70
2018-12-22T21:50:22.659Z,97849.95
2018-12-22T21:52:50.131Z,97866.35
2018-12-22T21:55:17.597Z,97863.09
2018-12-22T21:57:45.102Z,97862.36
2018-12-22T22:00:12.575Z,97867.60
2018-12-22T22:02:40.052Z,97869.74
2018-12-22T22:05:07.531Z,97866.25
2018-12-22T22:07:35.006Z,97873.36
2018-12-22T22:10:02.502Z,97879.62
2018-12-22T22:12:29.971Z,97870.14
2018-12-22T22:14:57.441Z,97875.01
2018-12-22T22:17:24.913Z,97888.77
2018-12-22T22:19:52.411Z,97871.52
2018-12-22T22:22:19.905Z,97877.52
2018-12-22T22:24:47.381Z,97882.87
2018-12-22T22:27:14.864Z,97876.98
2018-12-22T22:29:42.346Z,97880.64
2018-12-22T22:32:09.825Z,97879.12
2018-12-22T22:34:45.384Z,97870.99
2018-12-22T22:37:07.846Z,97877.91
2018-12-22T22:39:35.350Z,97873.27
2018-12-22T22:42:02.939Z,97870.00
2018-12-22T22:44:30.413Z,97869.38
2018-12-22T22:46:57.910Z,97867.37
2018-12-22T22:49:25.391Z,97868.48
2018-12-22T22:51:52.901Z,97866.52
2018-12-22T22:54:20.394Z,97865.00
2018-12-22T22:56:47.890Z,97857.09
2018-12-22T22:59:15.370Z,97859.63
2018-12-22T23:01:42.837Z,97856.37
2018-12-22T23:04:10.308Z,97865.66
2018-12-22T23:06:37.790Z,97873.53
2018-12-22T23:09:05.731Z,97874.65
2018-12-22T23:11:33.226Z,97868.48
2018-12-22T23:14:00.695Z,97861.25
2018-12-22T23:16:28.174Z,97867.11
2018-12-22T23:18:55.722Z,97854.33
2018-12-22T23:21:23.199Z,97869.34
2018-12-22T23:23:50.673Z,97867.73
2018-12-22T23:26:18.170Z,97876.36
2018-12-22T23:28:45.644Z,97874.75
2018-12-22T23:31:13.119Z,97879.75
2018-12-22T23:33:40.597Z,97879.36
2018-12-22T23:36:08.061Z,97890.25
2018-12-22T23:38:35.555Z,97885.61
2018-12-22T23:41:03.054Z,97895.98
2018-12-22T23:43:30.520Z,97899.11
2018-12-22T23:45:57.990Z,97891.20
2018-12-22T23:48:25.491Z,97902.33
2018-12-22T23:50:53.011Z,97896.34
2018-12-22T23:53:20.508Z,97898.70
2018-12-22T23:55:47.979Z,97902.95
2018-12-22T23:58:15.442Z,97908.45
